Time;durP1;ratioP1;P1;durP2;ratioP2;P2;SDS_P1;SDS_P2;PMS_P1;PMS_P2;Temp;Humidity;BMP_temperature;BMP_pressure;BME280_temperature;BME280_humidity;BME280_pressure;Samples;Min_cycle;Max_cycle;Signal;HPM_P1;HPM_P2
2022/12/28 00:01:17;;;;;;;7.57;3.60;;;;;;;10.22;60.11;101562.78;5082442;28;20119;-68
2022/12/28 00:03:45;;;;;;;6.32;3.67;;;;;;;10.24;60.05;101543.91;5089114;28;20036;-66
2022/12/28 00:06:12;;;;;;;9.32;3.60;;;;;;;10.24;60.26;101528.66;5092645;28;20490;-66
2022/12/28 00:08:39;;;;;;;7.32;3.78;;;;;;;10.25;60.42;101529.53;5092528;28;20436;-66
2022/12/28 00:11:11;;;;;;;7.28;3.63;;;;;;;10.25;60.43;101525.03;5075802;28;20053;-67
2022/12/28 00:13:54;;;;;;;6.57;3.35;;;;;;;10.26;60.11;101529.44;5072856;28;20039;-67
2022/12/28 00:16:27;;;;;;;7.60;3.38;;;;;;;10.27;60.23;101530.31;5072695;28;20040;-67
2022/12/28 00:18:55;;;;;;;6.75;3.70;;;;;;;10.27;60.34;101516.88;5073025;28;20037;-67
2022/12/28 00:21:22;;;;;;;7.93;3.65;;;;;;;10.27;60.24;101519.56;5072983;28;20041;-67
2022/12/28 00:23:53;;;;;;;6.50;3.47;;;;;;;10.26;60.62;101509.78;5072860;28;20051;-66
2022/12/28 00:26:23;;;;;;;5.50;3.40;;;;;;;10.27;60.48;101500.78;5091328;28;20040;-67
2022/12/28 00:28:50;;;;;;;7.25;3.58;;;;;;;10.27;60.63;101501.63;5092191;28;20043;-66
2022/12/28 00:31:17;;;;;;;7.03;4.05;;;;;;;10.29;60.45;101496.19;5094765;28;20050;-65
2022/12/28 00:33:44;;;;;;;6.25;3.50;;;;;;;10.30;60.42;101479.97;5095969;28;20056;-66
2022/12/28 00:36:13;;;;;;;7.57;3.60;;;;;;;10.31;60.76;101467.41;5094382;28;20524;-65
2022/12/28 00:38:40;;;;;;;6.32;3.15;;;;;;;10.31;60.79;101467.41;5097154;28;20043;-67
2022/12/28 00:41:08;;;;;;;6.18;3.15;;;;;;;10.29;60.81;101462.13;5095314;28;20123;-65
2022/12/28 00:43:35;;;;;;;7.35;3.95;;;;;;;10.30;60.44;101454.94;5095353;28;20047;-66
2022/12/28 00:46:02;;;;;;;5.90;3.28;;;;;;;10.28;60.82;101451.50;5079451;28;20083;-66
2022/12/28 00:48:29;;;;;;;10.77;4.28;;;;;;;10.26;60.64;101448.03;5094822;28;20086;-67
2022/12/28 00:51:17;;;;;;;9.25;3.78;;;;;;;10.24;60.78;101452.63;5094433;28;20072;-66
2022/12/28 00:53:44;;;;;;;7.18;3.65;;;;;;;10.25;60.88;101446.31;5086660;28;20398;-66
2022/12/28 00:56:16;;;;;;;7.07;3.50;;;;;;;10.25;60.61;101433.75;5086794;28;20101;-66
2022/12/28 00:58:44;;;;;;;6.10;3.40;;;;;;;10.26;60.64;101434.63;5086497;28;20044;-66
2022/12/28 01:01:13;;;;;;;5.47;3.80;;;;;;;10.26;60.65;101437.31;5085755;28;20074;-66
2022/12/28 01:03:40;;;;;;;7.32;3.40;;;;;;;10.28;60.84;101444.31;5075785;28;20479;-66
2022/12/28 01:06:09;;;;;;;7.60;4.00;;;;;;;10.31;60.97;101427.16;5093427;28;20071;-66
2022/12/28 01:08:37;;;;;;;8.68;4.35;;;;;;;10.33;60.96;101430.59;5076005;28;20115;-67
2022/12/28 01:11:09;;;;;;;4.45;3.42;;;;;;;10.34;60.95;101424.28;5086120;28;20036;-66
2022/12/28 01:13:36;;;;;;;6.45;4.20;;;;;;;10.36;61.07;101427.72;5095177;28;20040;-66
2022/12/28 01:16:14;;;;;;;6.22;3.28;;;;;;;10.35;61.02;101424.19;5094261;28;20038;-66
2022/12/28 01:18:42;;;;;;;8.05;3.40;;;;;;;10.38;61.00;101425.81;5095191;28;20143;-67
2022/12/28 01:21:17;;;;;;;7.30;3.83;;;;;;;10.38;60.80;101417.75;5094597;28;20036;-68
2022/12/28 01:23:45;;;;;;;6.72;3.95;;;;;;;10.39;61.05;101412.28;5078829;28;20045;-67
2022/12/28 01:26:12;;;;;;;6.97;3.97;;;;;;;10.41;61.01;101423.84;5076324;28;20044;-67
2022/12/28 01:28:39;;;;;;;5.25;3.60;;;;;;;10.42;61.10;101408.59;5074523;28;20051;-67
2022/12/28 01:31:11;;;;;;;7.00;3.60;;;;;;;10.44;61.07;101407.53;5075460;28;20055;-66
2022/12/28 01:33:38;;;;;;;5.30;3.55;;;;;;;10.47;61.14;101403.81;5088506;28;20036;-67
2022/12/28 01:36:13;;;;;;;10.80;3.67;;;;;;;10.48;61.06;101394.78;5092298;28;20039;-65
2022/12/28 01:38:39;;;;;;;6.90;3.65;;;;;;;10.50;60.80;101396.41;5075425;28;20053;-66
2022/12/28 01:41:08;;;;;;;6.65;3.83;;;;;;;10.51;61.05;101381.16;5072851;28;20487;-66
2022/12/28 01:43:40;;;;;;;5.43;3.67;;;;;;;10.54;61.21;101377.44;5076937;28;20398;-66
2022/12/28 01:46:10;;;;;;;6.57;3.50;;;;;;;10.54;60.98;101380.97;5089704;28;20051;-66
2022/12/28 01:48:44;;;;;;;4.82;3.58;;;;;;;10.57;60.78;101380.78;5095402;28;20076;-66
2022/12/28 01:51:11;;;;;;;7.47;3.80;;;;;;;10.60;61.04;101375.22;5083232;28;20046;-66
2022/12/28 01:53:38;;;;;;;8.00;3.88;;;;;;;10.60;60.91;101369.00;5088164;28;20298;-66
2022/12/28 01:56:05;;;;;;;5.13;3.42;;;;;;;10.63;60.74;101355.38;5092804;28;20035;-65
2022/12/28 01:58:33;;;;;;;7.47;3.80;;;;;;;10.64;60.78;101359.78;5092547;28;20044;-67
2022/12/28 02:01:00;;;;;;;8.13;3.63;;;;;;;10.66;61.06;101353.34;5094424;28;20122;-67
2022/12/28 02:03:29;;;;;;;8.77;3.55;;;;;;;10.68;60.97;101327.25;5094200;28;20490;-66
2022/12/28 02:06:00;;;;;;;6.50;3.30;;;;;;;10.70;60.95;101338.75;5080253;28;20044;-66
2022/12/28 02:08:52;;;;;;;5.22;3.60;;;;;;;10.70;60.81;101329.84;5082441;28;20060;-66
2022/12/28 02:11:19;;;;;;;8.98;3.53;;;;;;;10.75;61.04;101331.28;5074820;28;20048;-66
2022/12/28 02:13:48;;;;;;;5.72;3.50;;;;;;;10.76;61.01;101324.94;5085388;28;20580;-66
2022/12/28 02:16:16;;;;;;;6.65;3.65;;;;;;;10.78;60.97;101312.25;5086242;28;20411;-67
2022/12/28 02:18:45;;;;;;;6.50;3.63;;;;;;;10.79;60.74;101313.13;5073296;28;20040;-66
2022/12/28 02:21:26;;;;;;;8.55;3.80;;;;;;;10.81;60.91;101304.00;5074240;28;20391;-66
2022/12/28 02:24:24;;;;;;;5.00;3.33;;;;;;;10.83;60.79;101299.41;5089131;28;20051;-66
2022/12/28 02:27:21;;;;;;;6.10;3.53;;;;;;;10.85;60.76;101285.00;5094956;28;20055;-65
2022/12/28 02:29:56;;;;;;;4.43;3.08;;;;;;;10.87;60.97;101281.25;5083418;28;20040;-66
2022/12/28 02:33:06;;;;;;;6.50;3.25;;;;;;;10.85;60.89;101263.50;5078823;28;20044;-66
2022/12/28 02:35:55;;;;;;;3.92;3.05;;;;;;;10.88;60.84;101255.25;5092607;28;20040;-66
2022/12/28 02:38:33;;;;;;;4.00;3.00;;;;;;;10.91;60.85;101255.03;5092729;28;20119;-66
2022/12/28 02:41:11;;;;;;;6.18;3.50;;;;;;;10.92;60.85;101246.88;5093142;28;20062;-66
2022/12/28 02:43:38;;;;;;;6.95;3.45;;;;;;;10.95;60.73;101243.13;5089868;28;20082;-66
2022/12/28 02:52:11;;;;;;;5.35;3.00;;;;;;;10.99;60.86;101221.31;5103462;28;20079;-67
2022/12/28 02:57:57;;;;;;;6.18;3.75;;;;;;;11.05;60.80;101223.59;5093561;28;20074;-65
2022/12/28 03:00:28;;;;;;;5.95;3.08;;;;;;;11.07;61.11;101218.13;5092110;28;20131;-66
2022/12/28 03:03:13;;;;;;;5.03;3.05;;;;;;;11.08;61.03;101222.53;5086263;28;20101;-66
2022/12/28 03:09:08;;;;;;;5.60;3.38;;;;;;;11.12;60.89;101216.84;5084210;28;20036;-65
2022/12/28 03:12:02;;;;;;;6.88;4.15;;;;;;;11.11;61.20;101215.13;5093613;28;20576;-66
2022/12/28 03:14:38;;;;;;;6.93;3.45;;;;;;;11.14;61.18;101208.66;5091973;28;20090;-66
2022/12/28 03:31:22;;;;;;;5.40;3.60;;;;;;;11.13;61.50;101186.31;5091116;28;20477;-67
2022/12/28 03:34:05;;;;;;;7.72;4.35;;;;;;;11.15;61.52;101191.63;5074575;28;20051;-66
2022/12/28 03:36:59;;;;;;;4.78;4.05;;;;;;;11.15;61.97;101188.94;5080796;28;20052;-66
2022/12/28 03:39:48;;;;;;;5.80;4.25;;;;;;;11.17;61.84;101183.44;5090860;28;20093;-67
2022/12/28 03:45:23;;;;;;;5.95;3.58;;;;;;;11.20;62.07;101177.84;5085594;28;20494;-66
2022/12/28 03:48:10;;;;;;;7.55;3.88;;;;;;;11.21;61.99;101179.59;5080460;28;20036;-67
2022/12/28 03:50:41;;;;;;;6.30;4.07;;;;;;;11.20;61.95;101180.53;5091341;28;20525;-67
2022/12/28 03:53:08;;;;;;;4.85;4.00;;;;;;;11.20;62.14;101178.72;5078650;28;20036;-67
2022/12/28 03:55:38;;;;;;;7.65;4.35;;;;;;;11.21;62.28;101172.38;5091648;28;20101;-68
2022/12/28 03:58:06;;;;;;;5.72;4.20;;;;;;;11.21;62.13;101175.06;5071847;28;20056;-67
2022/12/28 04:00:32;;;;;;;6.03;4.05;;;;;;;11.23;62.35;101169.59;5081069;28;20190;-67
2022/12/28 04:02:59;;;;;;;6.35;4.13;;;;;;;11.23;62.71;101173.13;5091041;28;20063;-67
2022/12/28 04:05:27;;;;;;;5.90;4.20;;;;;;;11.22;62.35;101155.28;5094906;28;20051;-67
2022/12/28 04:07:53;;;;;;;5.85;4.38;;;;;;;11.23;62.60;101161.50;5092938;28;20040;-66
2022/12/28 04:10:21;;;;;;;7.55;4.72;;;;;;;11.26;62.78;101153.25;5095332;28;20105;-66
2022/12/28 04:12:52;;;;;;;4.93;4.40;;;;;;;11.26;62.68;101156.78;5094346;28;20558;-66
2022/12/28 04:15:37;;;;;;;6.90;3.83;;;;;;;11.30;62.86;101149.38;5085506;28;20045;-67
2022/12/28 04:18:04;;;;;;;5.20;4.38;;;;;;;11.31;62.89;101149.25;5094879;28;20063;-66
2022/12/28 04:20:31;;;;;;;6.68;4.10;;;;;;;11.32;62.94;101145.59;5095943;28;20071;-67
2022/12/28 04:22:57;;;;;;;5.75;4.10;;;;;;;11.33;62.92;101138.41;5091229;28;20052;-66
2022/12/28 04:25:24;;;;;;;7.40;4.55;;;;;;;11.34;62.90;101148.19;5075493;28;20072;-67
2022/12/28 04:27:51;;;;;;;4.93;4.32;;;;;;;11.34;62.80;101140.97;5076679;28;20032;-66
2022/12/28 04:30:36;;;;;;;7.95;4.32;;;;;;;11.37;62.71;101137.22;5089256;28;20125;-67
2022/12/28 04:33:03;;;;;;;9.82;4.28;;;;;;;11.36;63.25;101141.75;5075472;28;20139;-66
2022/12/28 04:35:31;;;;;;;6.68;4.43;;;;;;;11.38;63.20;101139.81;5095669;28;20036;-67
2022/12/28 04:37:58;;;;;;;5.32;4.22;;;;;;;11.39;63.29;101137.97;5094293;28;20050;-66
2022/12/28 04:40:24;;;;;;;6.20;4.65;;;;;;;11.40;63.07;101137.88;5095649;28;20039;-67
2022/12/28 04:42:51;;;;;;;6.82;5.05;;;;;;;11.42;63.41;101141.31;5094636;28;20040;-67
2022/12/28 04:45:17;;;;;;;9.10;5.45;;;;;;;11.42;63.33;101135.06;5095512;28;20036;-67
2022/12/28 04:47:48;;;;;;;7.80;4.15;;;;;;;11.44;63.19;101144.75;5096006;28;20079;-68
2022/12/28 04:50:14;;;;;;;11.25;4.97;;;;;;;11.45;63.35;101135.72;5095707;28;20452;-67
2022/12/28 04:52:42;;;;;;;8.95;4.65;;;;;;;11.48;63.31;101131.09;5092578;28;20044;-67
2022/12/28 04:55:08;;;;;;;6.35;5.00;;;;;;;11.49;63.23;101132.81;5096471;28;20048;-66
2022/12/28 04:57:55;;;;;;;7.78;5.63;;;;;;;11.49;63.75;101141.75;5076102;28;20071;-67
2022/12/28 05:00:21;;;;;;;8.60;5.10;;;;;;;11.50;63.42;101130.00;5076158;28;20075;-68
2022/12/28 05:02:48;;;;;;;8.45;5.50;;;;;;;11.52;63.65;101140.66;5075571;28;20037;-67
2022/12/28 05:05:15;;;;;;;6.28;5.13;;;;;;;11.53;63.69;101126.25;5076110;28;20154;-68
2022/12/28 05:07:41;;;;;;;9.77;5.72;;;;;;;11.56;63.52;101120.66;5076075;28;20055;-67
2022/12/28 05:10:08;;;;;;;7.60;5.30;;;;;;;11.57;63.55;101122.38;5079118;28;20044;-66
2022/12/28 05:12:34;;;;;;;6.20;5.10;;;;;;;11.57;63.54;101117.84;5080271;28;20055;-67
2022/12/28 05:15:01;;;;;;;8.70;5.60;;;;;;;11.57;63.86;101112.47;5075652;28;20036;-67
2022/12/28 05:17:27;;;;;;;7.20;5.53;;;;;;;11.60;63.81;101104.19;5092774;28;20478;-68
2022/12/28 05:19:54;;;;;;;6.82;5.57;;;;;;;11.62;63.75;101106.75;5096063;28;20486;-67
2022/12/28 05:22:21;;;;;;;6.32;4.90;;;;;;;11.62;63.84;101113.00;5095938;28;20044;-68
2022/12/28 05:24:47;;;;;;;6.50;5.30;;;;;;;11.64;63.89;101118.28;5086620;28;20059;-68
2022/12/28 05:27:14;;;;;;;7.40;5.60;;;;;;;11.63;64.03;101114.72;5090428;28;20058;-67
2022/12/28 05:29:40;;;;;;;6.72;4.97;;;;;;;11.64;63.88;101111.06;5095874;28;20046;-69
2022/12/28 05:32:07;;;;;;;7.10;5.28;;;;;;;11.65;63.98;101118.16;5094325;28;20055;-69
2022/12/28 05:34:33;;;;;;;6.25;5.65;;;;;;;11.66;64.16;101125.28;5095810;28;20498;-69
2022/12/28 05:37:00;;;;;;;9.52;6.03;;;;;;;11.66;63.86;101114.50;5094219;28;20044;-68
2022/12/28 05:39:26;;;;;;;7.55;5.38;;;;;;;11.69;64.22;101122.34;5095512;28;20053;-67
2022/12/28 05:41:53;;;;;;;6.40;5.60;;;;;;;11.70;64.07;101123.22;5095477;28;20131;-69
2022/12/28 05:44:20;;;;;;;6.65;5.53;;;;;;;11.73;64.09;101121.16;5095623;28;20035;-68
2022/12/28 05:46:46;;;;;;;6.13;5.20;;;;;;;11.75;64.25;101113.00;5094179;28;20410;-68
2022/12/28 05:49:13;;;;;;;6.70;5.57;;;;;;;11.74;64.35;101114.81;5095618;28;20051;-67
2022/12/28 05:51:39;;;;;;;8.65;5.50;;;;;;;11.75;64.27;101115.69;5094127;28;20040;-67
2022/12/28 05:54:06;;;;;;;7.57;5.40;;;;;;;11.76;64.24;101112.03;5095607;28;20074;-68
2022/12/28 05:56:33;;;;;;;7.03;4.75;;;;;;;11.78;64.21;101102.03;5093271;28;20597;-67
2022/12/28 05:59:05;;;;;;;7.20;5.10;;;;;;;11.80;64.42;101102.78;5081847;28;20400;-69
2022/12/28 06:01:34;;;;;;;5.53;4.70;;;;;;;11.80;64.48;101105.47;5075367;28;20064;-69
2022/12/28 06:04:04;;;;;;;8.02;4.88;;;;;;;11.81;64.27;101098.25;5074906;28;20555;-69
2022/12/28 06:06:33;;;;;;;5.10;4.18;;;;;;;11.83;64.60;101096.31;5074281;28;20050;-69
2022/12/28 06:09:00;;;;;;;7.85;4.60;;;;;;;11.84;64.72;101090.84;5074783;28;20045;-68
2022/12/28 06:11:28;;;;;;;5.03;3.80;;;;;;;11.85;64.67;101084.47;5075097;28;20037;-68
2022/12/28 06:13:57;;;;;;;5.38;3.78;;;;;;;11.88;64.63;101088.78;5074689;28;20040;-68
2022/12/28 06:16:26;;;;;;;4.13;3.40;;;;;;;11.88;64.77;101080.69;5074743;28;20040;-67
2022/12/28 06:18:53;;;;;;;5.32;3.63;;;;;;;11.89;64.27;101079.72;5074770;28;20049;-67
2022/12/28 06:21:28;;;;;;;5.07;3.97;;;;;;;11.88;64.56;101083.41;5074548;28;20041;-67
2022/12/28 06:23:57;;;;;;;6.18;3.58;;;;;;;11.85;64.89;101065.63;5074109;28;20032;-67
2022/12/28 06:26:25;;;;;;;5.68;3.50;;;;;;;11.88;64.58;101064.56;5080575;28;20498;-67
2022/12/28 06:28:52;;;;;;;3.70;3.25;;;;;;;11.90;64.75;101070.72;5094291;28;20475;-68
2022/12/28 06:31:24;;;;;;;5.07;3.42;;;;;;;11.90;64.76;101063.50;5094763;28;20176;-67
2022/12/28 06:33:55;;;;;;;3.65;2.83;;;;;;;11.92;65.20;101075.00;5094420;28;20086;-67
2022/12/28 06:36:25;;;;;;;3.80;3.17;;;;;;;11.94;65.05;101067.69;5092766;28;20469;-67
2022/12/28 06:38:54;;;;;;;4.55;3.08;;;;;;;11.95;65.01;101069.41;5094794;28;20547;-67
2022/12/28 06:41:22;;;;;;;4.55;2.70;;;;;;;11.99;65.13;101067.34;5094602;28;20119;-67
2022/12/28 06:43:49;;;;;;;3.90;2.83;;;;;;;12.00;64.82;101071.75;5094429;28;20044;-68
2022/12/28 06:46:17;;;;;;;4.35;2.90;;;;;;;12.00;65.18;101061.84;5093833;28;20097;-68
2022/12/28 06:48:44;;;;;;;5.15;2.92;;;;;;;12.02;64.85;101064.44;5091258;28;20130;-67
2022/12/28 06:51:15;;;;;;;3.28;2.70;;;;;;;12.04;65.22;101062.50;5076939;28;20036;-68
2022/12/28 06:53:42;;;;;;;4.50;2.90;;;;;;;12.06;64.96;101058.72;5091272;28;20097;-67
2022/12/28 06:56:12;;;;;;;4.15;2.70;;;;;;;12.07;65.12;101059.56;5093670;28;20035;-67
2022/12/28 06:58:40;;;;;;;3.55;3.08;;;;;;;12.09;64.95;101063.00;5092939;28;20043;-67
2022/12/28 07:01:15;;;;;;;3.58;2.85;;;;;;;12.09;65.07;101069.25;5093679;28;20044;-68
2022/12/28 07:03:44;;;;;;;4.75;3.05;;;;;;;12.11;65.08;101066.44;5090765;28;20044;-67
2022/12/28 07:06:12;;;;;;;4.30;2.88;;;;;;;12.11;65.23;101058.38;5093406;28;20093;-68
2022/12/28 07:08:39;;;;;;;4.75;3.00;;;;;;;12.12;65.33;101059.22;5091963;28;20040;-68
2022/12/28 07:11:10;;;;;;;3.50;2.65;;;;;;;12.14;64.97;101065.34;5090727;28;20040;-67
2022/12/28 07:13:38;;;;;;;5.18;3.22;;;;;;;12.15;65.30;101059.00;5091654;28;20036;-68
2022/12/28 07:16:11;;;;;;;5.50;3.20;;;;;;;12.15;65.48;101059.00;5089052;28;20028;-67
2022/12/28 07:18:38;;;;;;;6.13;3.33;;;;;;;12.17;64.94;101054.38;5091771;28;20075;-67
2022/12/28 07:21:07;;;;;;;5.00;3.13;;;;;;;12.17;65.18;101051.66;5089325;28;20050;-68
2022/12/28 07:23:34;;;;;;;4.07;3.42;;;;;;;12.19;65.47;101049.72;5092424;28;20433;-67
2022/12/28 07:26:10;;;;;;;3.88;3.45;;;;;;;12.17;65.45;101047.16;5093203;28;20032;-68
2022/12/28 07:28:37;;;;;;;5.97;3.30;;;;;;;12.20;65.43;101051.44;5093305;28;20067;-68
2022/12/28 07:31:06;;;;;;;4.10;3.70;;;;;;;12.20;65.23;101056.81;5093162;28;20036;-68
2022/12/28 07:33:34;;;;;;;5.00;3.45;;;;;;;12.21;65.44;101048.63;5093025;28;20038;-67
2022/12/28 07:36:03;;;;;;;4.88;3.88;;;;;;;12.23;65.39;101051.22;5092998;28;20508;-68
2022/12/28 07:38:30;;;;;;;5.35;4.13;;;;;;;12.23;65.42;101049.38;5093010;28;20044;-70
2022/12/28 07:41:01;;;;;;;5.80;4.10;;;;;;;12.25;65.62;101055.50;5081413;28;20102;-66
2022/12/28 07:43:29;;;;;;;6.65;4.05;;;;;;;12.28;65.45;101054.41;5093345;28;20040;-66
2022/12/28 07:46:16;;;;;;;4.68;3.55;;;;;;;12.32;65.42;101062.16;5093241;28;20040;-65
2022/12/28 07:48:43;;;;;;;4.28;3.88;;;;;;;12.35;65.41;101061.06;5093443;28;20082;-66
2022/12/28 07:51:14;;;;;;;6.82;3.95;;;;;;;12.39;65.37;101063.41;5093311;28;20040;-66
2022/12/28 07:53:43;;;;;;;5.50;4.03;;;;;;;12.41;65.75;101061.47;5091275;28;20046;-67
2022/12/28 07:56:11;;;;;;;5.78;3.70;;;;;;;12.45;65.82;101061.22;5092518;28;20097;-66
2022/12/28 07:58:38;;;;;;;6.13;4.05;;;;;;;12.47;65.63;101059.28;5091213;28;20494;-66
2022/12/28 08:01:06;;;;;;;3.88;3.47;;;;;;;12.48;65.56;101055.63;5092849;28;20048;-66
2022/12/28 08:03:33;;;;;;;4.05;3.75;;;;;;;12.52;65.68;101057.97;5092893;28;20063;-66
2022/12/28 08:06:04;;;;;;;4.13;3.83;;;;;;;12.54;65.76;101060.53;5092800;28;20055;-66
2022/12/28 08:08:33;;;;;;;4.35;3.95;;;;;;;12.56;65.60;101059.44;5092816;28;20055;-66
2022/12/28 08:11:03;;;;;;;5.47;3.75;;;;;;;12.56;65.52;101062.13;5093033;28;20047;-66
2022/12/28 08:13:31;;;;;;;4.47;3.90;;;;;;;12.60;65.51;101060.06;5092806;28;20137;-66
2022/12/28 08:15:57;;;;;;;4.85;3.83;;;;;;;12.62;65.80;101058.97;5093250;28;20411;-66
2022/12/28 08:18:25;;;;;;;4.78;3.70;;;;;;;12.62;65.21;101052.72;5092995;28;20077;-65
2022/12/28 08:20:51;;;;;;;4.10;3.60;;;;;;;12.63;65.49;101043.66;5091840;28;20036;-66
2022/12/28 08:23:18;;;;;;;5.78;3.67;;;;;;;12.62;65.12;101053.59;5092939;28;20043;-66
2022/12/28 08:25:45;;;;;;;4.32;3.97;;;;;;;12.61;65.32;101051.00;5092039;28;20444;-66
2022/12/28 08:28:11;;;;;;;4.05;3.60;;;;;;;12.63;65.54;101054.44;5092199;28;20044;-64
2022/12/28 08:30:38;;;;;;;4.60;4.20;;;;;;;12.64;65.48;101048.97;5092981;28;20050;-64
2022/12/28 08:33:04;;;;;;;4.38;3.97;;;;;;;12.64;65.35;101050.81;5092394;28;20574;-65
2022/12/28 08:35:34;;;;;;;4.63;4.22;;;;;;;12.65;65.31;101052.53;5091421;28;20045;-64
2022/12/28 08:38:01;;;;;;;4.85;4.28;;;;;;;12.66;65.59;101046.16;5091717;28;20047;-63
2022/12/28 08:40:28;;;;;;;8.07;4.30;;;;;;;12.65;65.69;101052.53;5092190;28;20097;-65
2022/12/28 08:42:57;;;;;;;4.57;4.20;;;;;;;12.64;65.31;101048.13;5092450;28;20040;-64
2022/12/28 08:45:25;;;;;;;5.47;4.25;;;;;;;12.62;65.15;101052.72;5092479;28;20056;-65
2022/12/28 08:47:52;;;;;;;6.15;4.10;;;;;;;12.62;65.36;101042.81;5091138;28;20036;-65
2022/12/28 08:50:19;;;;;;;4.78;4.32;;;;;;;12.63;65.19;101044.56;5091754;28;20069;-64
2022/12/28 08:52:51;;;;;;;6.40;4.40;;;;;;;12.64;65.33;101043.59;5094625;28;20044;-64
2022/12/28 08:55:18;;;;;;;7.78;4.70;;;;;;;12.64;65.27;101043.59;5094775;28;20402;-64
2022/12/28 08:57:45;;;;;;;7.22;4.50;;;;;;;12.65;65.25;101041.75;5094646;28;20068;-65
2022/12/28 09:00:12;;;;;;;6.28;4.80;;;;;;;12.67;65.44;101043.34;5094409;28;20038;-65
2022/12/28 09:02:38;;;;;;;6.53;4.50;;;;;;;12.68;65.34;101046.91;5093858;28;20032;-65
2022/12/28 09:05:06;;;;;;;7.10;4.90;;;;;;;12.69;65.29;101040.53;5094181;28;20067;-65
2022/12/28 09:07:32;;;;;;;5.88;4.90;;;;;;;12.70;65.43;101044.94;5093904;28;20032;-65
2022/12/28 09:10:00;;;;;;;5.75;5.15;;;;;;;12.71;65.62;101039.44;5093822;28;20071;-64
2022/12/28 09:12:26;;;;;;;5.60;5.03;;;;;;;12.72;65.31;101043.84;5093824;28;20486;-65
2022/12/28 09:14:53;;;;;;;5.35;4.72;;;;;;;12.73;65.33;101039.31;5095136;28;20036;-63
2022/12/28 09:17:19;;;;;;;6.03;5.03;;;;;;;12.75;65.30;101045.44;5095467;28;20040;-63
2022/12/28 09:19:46;;;;;;;5.30;4.72;;;;;;;12.74;65.51;101041.03;5095639;28;20052;-64
2022/12/28 09:22:13;;;;;;;6.88;4.30;;;;;;;12.73;65.12;101045.56;5095587;28;20050;-64
2022/12/28 09:24:40;;;;;;;6.50;4.63;;;;;;;12.75;65.28;101053.53;5094768;28;20036;-63
2022/12/28 09:27:06;;;;;;;8.73;5.03;;;;;;;12.76;65.62;101046.31;5095924;28;20040;-63
2022/12/28 09:29:34;;;;;;;6.93;4.40;;;;;;;12.77;65.37;101038.09;5095447;28;20083;-64
2022/12/28 09:32:01;;;;;;;5.25;4.28;;;;;;;12.79;65.46;101043.38;5095426;28;20052;-64
2022/12/28 09:34:27;;;;;;;5.88;4.25;;;;;;;12.78;65.55;101042.53;5094228;28;20040;-64
2022/12/28 09:37:07;;;;;;;8.68;3.85;;;;;;;12.80;65.59;101040.56;5095146;28;20557;-64
2022/12/28 09:39:33;;;;;;;4.05;3.65;;;;;;;12.80;65.46;101045.09;5094666;28;20072;-62
2022/12/28 09:42:15;;;;;;;4.82;4.18;;;;;;;12.80;65.33;101048.66;5093632;28;20097;-63
2022/12/28 09:44:54;;;;;;;4.90;3.90;;;;;;;12.80;65.68;101039.72;5093605;28;20094;-64
2022/12/28 09:47:24;;;;;;;4.30;3.50;;;;;;;12.80;65.43;101043.25;5093893;28;20048;-63
2022/12/28 09:50:14;;;;;;;4.70;3.88;;;;;;;12.79;65.77;101033.47;5092910;28;20048;-63
2022/12/28 09:53:05;;;;;;;4.90;3.40;;;;;;;12.82;65.66;101041.31;5067128;28;20053;-63
2022/12/28 09:55:37;;;;;;;3.88;3.40;;;;;;;12.83;65.21;101034.09;5075141;28;20107;-63
2022/12/28 09:58:10;;;;;;;4.90;3.53;;;;;;;12.83;65.46;101037.63;5074358;28;20491;-64
2022/12/28 10:00:43;;;;;;;3.90;3.38;;;;;;;12.85;65.78;101035.69;5090515;28;20494;-64
2022/12/28 10:03:19;;;;;;;3.83;3.38;;;;;;;12.87;65.48;101033.72;5093916;28;20048;-63
2022/12/28 10:05:47;;;;;;;5.25;3.60;;;;;;;12.87;65.69;101030.16;5093818;28;20418;-63
2022/12/28 10:08:17;;;;;;;6.07;3.50;;;;;;;12.89;65.88;101028.22;5094655;28;20249;-64
2022/12/28 10:10:44;;;;;;;3.70;3.40;;;;;;;12.91;65.43;101024.41;5094927;28;20036;-63
2022/12/28 10:13:27;;;;;;;4.80;3.60;;;;;;;12.91;65.31;101029.81;5094843;28;20525;-64
2022/12/28 10:16:19;;;;;;;6.10;3.38;;;;;;;12.95;65.52;101030.44;5093759;28;20592;-64
2022/12/28 10:18:47;;;;;;;4.53;3.20;;;;;;;12.98;65.25;101030.19;5094617;28;20048;-63
2022/12/28 10:21:20;;;;;;;5.05;3.13;;;;;;;12.99;65.28;101038.16;5094748;28;20048;-63
2022/12/28 10:23:56;;;;;;;5.80;3.42;;;;;;;13.01;65.58;101029.94;5092555;28;20047;-63
2022/12/28 10:26:45;;;;;;;4.45;3.25;;;;;;;13.03;65.80;101022.59;5094851;28;20047;-64
2022/12/28 10:29:17;;;;;;;4.40;3.10;;;;;;;13.01;65.76;101020.03;5094309;28;20047;-64
2022/12/28 10:31:57;;;;;;;3.78;2.85;;;;;;;13.03;65.47;101019.91;5094415;28;20052;-64
2022/12/28 10:34:24;;;;;;;4.93;3.05;;;;;;;13.07;65.73;101016.00;5094522;28;20123;-64
2022/12/28 10:36:52;;;;;;;3.25;2.95;;;;;;;13.08;65.40;101017.69;5092113;28;20048;-64
2022/12/28 10:39:25;;;;;;;3.65;2.90;;;;;;;13.09;65.33;101014.03;5094056;28;20048;-64
2022/12/28 10:41:53;;;;;;;3.83;3.03;;;;;;;13.10;65.53;101004.97;5094147;28;20494;-64
2022/12/28 10:44:30;;;;;;;4.80;2.53;;;;;;;13.08;65.36;101009.63;5080907;28;20090;-64
2022/12/28 10:47:21;;;;;;;5.35;3.03;;;;;;;13.09;65.34;101005.94;5073893;28;20043;-64
2022/12/28 10:49:50;;;;;;;4.82;3.17;;;;;;;13.09;65.71;101003.25;5072373;28;20055;-63
2022/12/28 10:52:36;;;;;;;4.07;2.92;;;;;;;13.11;65.61;101008.50;5086082;28;20079;-63
2022/12/28 10:55:30;;;;;;;4.82;2.88;;;;;;;13.10;65.63;101002.25;5094125;28;20040;-63
2022/12/28 10:58:21;;;;;;;5.40;3.33;;;;;;;13.13;65.58;101002.03;5094032;28;20093;-63
2022/12/28 11:01:11;;;;;;;4.22;2.67;;;;;;;13.14;65.51;100992.94;5092977;28;20048;-64
2022/12/28 11:03:57;;;;;;;4.05;2.92;;;;;;;13.13;65.45;100995.78;5093645;28;20494;-63
2022/12/28 11:06:26;;;;;;;6.32;3.13;;;;;;;13.10;65.41;100986.09;5092573;28;20502;-64
2022/12/28 11:09:14;;;;;;;4.90;3.00;;;;;;;13.11;65.79;100978.84;5093753;28;20040;-64
2022/12/28 11:11:42;;;;;;;3.30;3.00;;;;;;;13.12;65.53;100984.13;5093867;28;20127;-63
2022/12/28 11:14:29;;;;;;;5.43;3.47;;;;;;;13.13;65.33;100982.28;5093700;28;20059;-64
2022/12/28 11:16:56;;;;;;;3.45;3.13;;;;;;;13.14;65.79;100984.84;5092420;28;20044;-63
2022/12/28 11:19:24;;;;;;;4.15;3.00;;;;;;;13.14;65.83;100973.22;5092490;28;20048;-63
2022/12/28 11:21:51;;;;;;;3.70;3.13;;;;;;;13.16;65.68;100971.25;5093662;28;20044;-63
2022/12/28 11:24:24;;;;;;;6.18;3.30;;;;;;;13.16;65.57;100971.25;5092385;28;20393;-64
2022/12/28 11:26:51;;;;;;;4.20;3.20;;;;;;;13.15;65.52;100964.16;5093695;28;20051;-64
2022/12/28 11:29:18;;;;;;;4.20;3.10;;;;;;;13.14;65.88;100959.72;5093418;28;20081;-63
2022/12/28 11:32:07;;;;;;;5.00;2.85;;;;;;;13.14;65.43;100962.44;5093545;28;20105;-63
2022/12/28 11:34:36;;;;;;;7.00;3.10;;;;;;;13.16;65.35;100946.97;5093565;28;20044;-63
2022/12/28 11:37:02;;;;;;;4.97;3.10;;;;;;;13.14;65.57;100947.09;5093813;28;20054;-64
2022/12/28 11:39:31;;;;;;;5.68;3.00;;;;;;;13.15;65.57;100951.53;5093724;28;20105;-63
2022/12/28 11:41:59;;;;;;;5.03;2.88;;;;;;;13.16;65.69;100953.25;5093170;28;20044;-64
2022/12/28 11:44:48;;;;;;;3.75;3.15;;;;;;;13.16;65.85;100942.44;5093333;28;20044;-63
2022/12/28 11:47:14;;;;;;;4.90;2.90;;;;;;;13.16;65.59;100947.84;5092369;28;20052;-64
2022/12/28 11:49:44;;;;;;;5.00;3.00;;;;;;;13.15;65.79;100938.03;5092161;28;20101;-64
2022/12/28 11:52:13;;;;;;;3.35;2.83;;;;;;;13.15;65.59;100932.66;5082368;28;20119;-64
2022/12/28 11:55:25;;;;;;;3.25;2.95;;;;;;;13.16;65.41;100933.50;5080393;28;20436;-63
2022/12/28 11:57:53;;;;;;;3.35;2.65;;;;;;;13.19;65.85;100931.44;5076142;28;20135;-64
2022/12/28 12:00:19;;;;;;;8.30;3.20;;;;;;;13.19;65.61;100926.06;5093095;28;20490;-64
2022/12/28 12:02:55;;;;;;;3.78;3.25;;;;;;;13.20;65.32;100918.81;5092947;28;20044;-64
2022/12/28 12:05:37;;;;;;;4.38;3.08;;;;;;;13.20;65.53;100913.44;5093586;28;20075;-64
2022/12/28 12:08:16;;;;;;;7.43;4.32;;;;;;;13.21;65.61;100921.41;5093112;28;20097;-64
2022/12/28 12:10:43;;;;;;;3.85;3.00;;;;;;;13.23;65.42;100907.78;5093096;28;20036;-63
2022/12/28 12:13:25;;;;;;;5.03;2.80;;;;;;;13.22;65.37;100912.31;5092929;28;20047;-64